Aktualne dane pomiarowe

Uwaga, wersja testowa! Automatyczne pobieranie danych za pomocą narzędzi lub skryptów to umożliwiających jest zabronione.

Dane meteo z obszaru Polski uzyskane na podstawie depesz SYNOP pobieranych co godzinę z NWS. Najedź myszką na symbol przedstawiony w tabeli, aby uzyskać informacje co do jego znaczenia. Prosimy pamiętać, że to testowa wersja strony, która jeszcze nie jest ukończona. Stworzono również jest krótki FAQ dotyczący korzystania z tej podstrony Anomalie temperatury w chwili obecnej odniesione są do okresu referencyjnego 1951-2016. Okres ten będzie później zmieniony na 1981-2010. Kliknij ikonę aby pobrać plik CSV. Kliknij ikonę aby wygenerować mapę synoptyczną dla danego terminu.

Wybierz Datę:    

        

Radom (12485)

Dane terminowe dla wybranej stacji. Kliknij datę, aby otrzymać dane z tego terminu dla wszystkich stacji.

TemperaturaZachmurzenieWiatrCiśnienieOpadyPogoda
 Data t td wb tx tn tg rh  Nt Nl Cl Cm Ch ws wd g1 g2 wx mslp ppp ch 24h 12h t ww ww w1 w2  
2019-10-03 23:00:00 5.4 5.0 5.1--- 975.0wxwxwx2wx---1013.3 990.7 0.6-----w1w2--
2019-10-03 22:00:00 4.9 4.5 4.5--- 9710.0wxwxwx2wx---1013.3 990.7 0.7---------
2019-10-03 21:00:00 4.8 4.4 4.4--- 9710.0wxwxwx3wx---1013.3 990.6 0.5---------
2019-10-03 20:00:00 6.2 5.5 5.7--- 9510.0wxwxwx2wx---1012.6 990.1 0.0---------
2019-10-03 19:00:00 8.2 6.8 7.2--- 9110.0wxwxwx3wx---1012.4 990.0 0.0---------
2019-10-03 18:00:00 8.3 7.1 7.5--- 9210.0wxwxwx2wx---1012.5 990.1 0.6---------
2019-10-03 17:00:00 8.3 6.8 7.3--- 9010.0wxwxwx3wx---1012.5 990.1 1.1---wx-w1w2--
2019-10-03 16:00:00 9.3 5.7 7.1--- 787.0wxwxwx4wx---1012.2 989.9 0.8---wx---
2019-10-03 15:00:00 11.2 4.4 7.4--- 6310.0wxwxwxwx4wx---1011.6 989.5 0.6---------
2019-10-03 14:00:00 12.5 3.2 7.6--- 5310.0wxwxwxwx4wx---1011.1 989.1 0.2---------
2019-10-03 13:00:00 11.2 5.3 7.8--- 6710.0wxwxwx4wx---1011.1 989.0 -0.1---------
2019-10-03 12:00:00 11.2 5.3 7.8--- 6710.0wxwxwxwx4wx---1011.1 989.0 -0.1---------
2019-10-03 11:00:00 11.2 5.9 8.1--- 7010.0wxwxwxwx4wx---1011.0 988.9 0.0---------
2019-10-03 10:00:00 10.9 6.8 8.4--- 7610.0wxwxwxwx3wx---1011.3 989.2 0.7---------
2019-10-03 09:00:00 9.9 6.8 7.9--- 8110.0wxwxwxwx3wx---1011.3 989.1 1.0---------
2019-10-03 08:00:00 8.6 6.6 7.3--- 8710.0wxwxwxwx3wx---1011.2 988.9 1.2---------
2019-10-03 07:00:00 7.9 6.6 7.0--- 9110.0wxwxwxwx3wx---1010.9 988.5 1.4---------
2019-10-03 06:00:00 7.7 6.5 6.9--- 9210.0wxwxwxwx3wx---1010.6 988.2 1.3---------
2019-10-03 05:00:00 7.7 6.6 6.9--- 9310.0wxwxwxwx3wx---1010.0 987.7 1.3---------
2019-10-03 04:00:00 7.9 7.0 7.2--- 9410.0wxwxwx4wx---1009.4 987.1 1.0---------
2019-10-03 03:00:00 8.2 7.3 7.5--- 948.0wxwxwx3wx---1009.0 986.7 1.1---wx-w1w2--
2019-10-03 02:00:00 8.2 7.4 7.6--- 956.0wxwxwx3wx---1008.7 986.4 1.1---wx-w1w2--
2019-10-03 01:00:00 8.2 7.3 7.5--- 947.0--4wx---1008.4 986.1----------
2019-10-03 00:00:00 8.2 7.3 7.5--- 949.0--4wx---1007.9 985.6----------
2019-10-02 23:00:00 8.5 7.4 7.7--- 9310.0--5wx---1007.6 985.4----------
2019-10-02 22:00:00 8.9 8.0 8.2--- 947.0wxwxwx5wx---1007.1 984.9 2.0---wx-w1w2--
2019-10-02 21:00:00 9.2 8.1 8.4--- 937.0wxwxwx5wx---1006.5 984.3 2.3---wx-w1w2--
2019-10-02 20:00:00 9.9 9.1 9.3--- 957.0wxwxwx4wx---1005.6 983.5 2.3---wx-w1w2--
2019-10-02 19:00:00 10.8 9.7 10.0--- 938.0wxwxwx5wx---1004.8 982.8 2.0---wx-w1w2--
2019-10-02 17:00:00 15.7 12.6 13.6--- 8210.0wxwxwx5wx---1002.7 981.1 1.1---wx-w1w2--
2019-10-02 16:00:00 16.4 13.3 14.3--- 8210.0wxwxwx3wx---1002.3 980.8 0.5---wx---
2019-10-02 15:00:00 16.3 14.3 14.9--- 8810.0wxwxwx3wx---1002.0 980.5 0.0---------
2019-10-02 14:00:00 16.9 14.2 15.0--- 8410.0wxwxwx3wx---1001.5 980.0 -0.6---------
2019-10-02 13:00:00 16.9 14.0 14.9--- 8310.0wxwxwx3wx---1001.8 980.3 0.0---------
2019-10-02 12:00:00 16.3 13.8 14.6--- 8510.0wxwxwx3wx---1002.0 980.5 0.3---wx-w1w2--
2019-10-02 11:00:00 15.8 13.1 14.0--- 848.0wxwxwxwx3wx---1002.1 980.5 0.1---wx-w1w2--
2019-10-02 10:00:00 16.8 13.1 14.3--- 7910.0wxwxwxwx3wx---1001.8 980.3 -0.2---wx---
2019-10-02 09:00:00 17.6 12.1 14.1--- 7010.0wxwxwxwx3wx---1001.6 980.2 -0.3---------
2019-10-02 08:00:00 16.9 11.1 13.2--- 6910.0wx-wx3wx---1001.9 980.4 0.1---------
2019-10-02 07:00:00 15.0 10.5 12.1--- 7410.0wx-wxwx3wx---1002.0 980.4 0.1---------
2019-10-02 06:00:00 13.4 9.7 11.0--- 7810.0wx-wxwx3wx---1002.2 980.5 -0.1---------
2019-10-02 05:00:00 12.6 9.3 10.5--- 8010.0wx-wxwx4wx---1002.1 980.3 -0.5---------
2019-10-02 04:00:00 13.0 9.1 10.5--- 7710.0wx-wx4wx---1002.1 980.3 -0.9---------
2019-10-02 03:00:00 11.9 8.8 9.9--- 8110.0wxwxwx3wx---1002.5 980.6 -0.7---------
2019-10-02 02:00:00 12.4 8.7 10.0--- 7810.0wx-3wx---1002.6 980.8 -0.7---------
2019-10-02 01:00:00 12.6 9.1 10.3--- 7940.0--3wx---1003.0 981.2----------
2019-10-02 00:00:00 13.5 9.2 10.8--- 7540.0--4wx---1003.0 981.3----------
3.8 ms

 

Print Friendly, PDF & Email